Terminal Aerodrome Forecast
Issued by NWS

Home | Current Version | Previous Version | Text Only | Print | Product List | Glossary On
Versions: 1 2 3 4 5 6 7 8 9 10 11 12 13 14 15 16 17 18 19 20 21 22
000
FTUS43 KLSX 032159 AAA
TAFSUS
TAF AMD
KSUS 032159Z 0322/0418 01007KT P6SM VCSH SCT035
     FM040100 VRB03KT P6SM SKC
     FM041600 06003KT P6SM FEW025=

USA.gov is the U.S. government's official web portal to all federal, state and local government web resources and services.